Herndon, KY

6:02 PM CDT on August 20, 2014 (GMT -0500)
Herndon | Change Station
CLOSE
Current Station
Personal Weather Station
Location: Herndon, KY
Elevation: 594 ft
Nearby Weather Stations
Active Advisory: Heat Advisory Active Notice: Public Information Statement

Elev 594 ft 36.67 °N, 87.56 °W | Updated 24 seconds ago

Light Thunderstorms and Rain
Light Thunderstorm Rain
72.5 °F
Feels Like 71 °F
N
3.0
Wind Variable Wind from West
Gusts 7.0 mph

Today
High -- | Low -- °F
--% Chance of Precip.
Yesterday
High -- | Low -- °F
Precip. -- in
6:11 AM 7:35 PM
Waning Crescent, 18% visible
Pressure 30.00 in
Visibility 6.0 miles
Clouds Few 200 ft
Mostly Cloudy 2900 ft
Overcast 4900 ft
Heat Index 71 °F
Dew Point 69 °F
Humidity 88%
Rainfall 0.97 in
Snow Depth Not available.
UV 0 out of 12
Pollen 9.30 out of 12
PM2.5 Moderate
Flu Activity Not available.
SPECI KHOP 202252Z AUTO 30015G20KT 6SM -TSRA FEW002 BKN029 OVC049 25/21 A3000 RMK AO2 LTG DSNT NE-NW TSB2206E2225B2227 CIG 018V049

More Conditions Fewer Conditions

Pressure 30.00 in
Visibility 6.0 miles
Clouds Few 200 ft
Mostly Cloudy 2900 ft
Overcast 4900 ft
Heat Index 71 °F
Dew Point 69 °F
Humidity 88%
Rainfall 0.97 in
Snow Depth Not available.
UV 0 out of 12
Pollen 9.30 out of 12
PM2.5 Moderate
Flu Activity Not available.
SPECI KHOP 202252Z AUTO 30015G20KT 6SM -TSRA FEW002 BKN029 OVC049 25/21 A3000 RMK AO2 LTG DSNT NE-NW TSB2206E2225B2227 CIG 018V049

More Conditions Fewer Conditions

10-Day Weather Forecast

Almanac

Astronomy

Aug. 20, 2014 Rise Set
Actual Time 6:11 AM CDT 7:35 PM CDT
Civil Twilight 5:44 AM CDT 8:02 PM CDT
Nautical Twilight 5:12 AM CDT 8:34 PM CDT
Astronomical Twilight 4:37 AM CDT 9:08 PM CDT
Moon 1:54 AM CDT 4:17 PM CDT
Length of Visible Light 14h 17m
Length of Day
13h 23m
Tomorrow will be 2m 8s shorter.
Waning Crescent, 18% of the Moon is Illuminated
Today
Waning Crescent
Aug 25
New
Sep 2
First Quarter
Sep 8
Full
Sep 15
Last Quarter

Today's Extremes

State Highs State Lows

Community

WunderPhotos

Upload Photos

1,745,791 photos uploaded!

Nearby

Air Quality

  Air Quality AQ Index Pollutant
Yesterday Moderate
PM2.5
Yesterday Good
OZONE
Current Moderate
PM2.5
Wednesday Moderate
PM2.5
Wednesday Good
OZONE
Thursday Moderate
PM2.5
Thursday Good
OZONE
Friday Moderate
PM2.5
Friday Good
OZONE

Snow Depth

Station Depth Elevation
No new snow has been reported.

Earthquake Activity

City Distance Mag. Time & Date
No recent earthquake activity has been reported nearby.
Minimum magnitude displayed is 2.5.

Coastal Water Temperatures

Place Temperature
No Stations Reporting

Nearby Weather Stations